Time;durP1;ratioP1;P1;durP2;ratioP2;P2;SDS_P1;SDS_P2;PMS_P1;PMS_P2;Temp;Humidity;BMP_temperature;BMP_pressure;BME280_temperature;BME280_humidity;BME280_pressure;Samples;Min_cycle;Max_cycle;Signal;HPM_P1;HPM_P2
2024/04/02 00:03:51;;;;;;;;;;;5.50;99.90;;;;;;21110295;28;19916;-78
2024/04/02 00:13:52;;;;;;;;;;;5.70;99.90;;;;;;21099300;28;19959;-78
2024/04/02 00:23:53;;;;;;;;;;;5.90;99.90;;;;;;21095896;28;19962;-76
2024/04/02 00:33:53;;;;;;;;;;;6.10;99.90;;;;;;21103820;28;19919;-78
2024/04/02 00:43:54;;;;;;;;;;;6.00;99.90;;;;;;21102693;28;19923;-78
2024/04/02 00:53:54;;;;;;;;;;;6.10;99.90;;;;;;21106370;28;19920;-78
2024/04/02 01:03:55;;;;;;;;;;;6.10;99.90;;;;;;21093489;28;20010;-78
2024/04/02 01:13:56;;;;;;;;;;;6.30;99.90;;;;;;21109636;28;19916;-78
2024/04/02 01:23:56;;;;;;;;;;;6.10;99.90;;;;;;21098694;28;20367;-78
2024/04/02 01:33:57;;;;;;;;;;;6.20;99.90;;;;;;21102551;28;19912;-78
2024/04/02 01:43:58;;;;;;;;;;;6.30;99.90;;;;;;21097469;28;20390;-78
2024/04/02 01:53:58;;;;;;;;;;;6.30;99.90;;;;;;21143072;28;19922;-77
2024/04/02 02:03:59;;;;;;;;;;;6.30;99.90;;;;;;21177787;28;19931;-75
2024/04/02 02:14:00;;;;;;;;;;;6.30;99.90;;;;;;21112950;28;20290;-79
2024/04/02 02:24:00;;;;;;;;;;;6.20;99.90;;;;;;21089258;28;20363;-78
2024/04/02 02:34:02;;;;;;;;;;;6.30;99.90;;;;;;21090446;28;19912;-78
2024/04/02 02:44:03;;;;;;;;;;;6.40;99.90;;;;;;21103309;28;20015;-77
2024/04/02 02:54:04;;;;;;;;;;;6.50;99.90;;;;;;21085971;28;19912;-77
2024/04/02 03:04:04;;;;;;;;;;;6.50;99.90;;;;;;21093221;28;19946;-77
2024/04/02 03:14:05;;;;;;;;;;;6.60;99.90;;;;;;21081954;28;19923;-78
2024/04/02 03:24:06;;;;;;;;;;;6.70;99.90;;;;;;21083105;28;19916;-78
2024/04/02 03:34:06;;;;;;;;;;;6.70;99.90;;;;;;21099440;28;20375;-79
2024/04/02 03:44:07;;;;;;;;;;;6.70;99.90;;;;;;21099689;28;19923;-78
2024/04/02 03:54:07;;;;;;;;;;;6.80;99.90;;;;;;21093539;28;20371;-77
2024/04/02 04:04:08;;;;;;;;;;;6.90;99.90;;;;;;21097841;28;19920;-78
2024/04/02 04:14:09;;;;;;;;;;;6.90;99.90;;;;;;21100277;28;20411;-78
2024/04/02 04:24:09;;;;;;;;;;;6.90;99.90;;;;;;21104325;28;19927;-79
2024/04/02 04:34:10;;;;;;;;;;;6.80;99.90;;;;;;21113543;28;19961;-77
2024/04/02 04:44:11;;;;;;;;;;;6.70;99.90;;;;;;21092870;28;20378;-78
2024/04/02 04:54:11;;;;;;;;;;;6.60;99.90;;;;;;21093693;28;19912;-78
2024/04/02 05:04:12;;;;;;;;;;;6.50;99.90;;;;;;21094162;28;19916;-77
2024/04/02 05:14:13;;;;;;;;;;;6.50;99.90;;;;;;21084552;28;19916;-77
2024/04/02 05:24:13;;;;;;;;;;;6.50;99.90;;;;;;21084767;28;20390;-77
2024/04/02 05:34:14;;;;;;;;;;;6.50;99.90;;;;;;21082491;28;19920;-77
2024/04/02 05:44:14;;;;;;;;;;;6.60;99.90;;;;;;21082978;28;20394;-77
2024/04/02 05:54:15;;;;;;;;;;;6.70;99.90;;;;;;21080211;28;19920;-77
2024/04/02 06:04:16;;;;;;;;;;;6.80;99.90;;;;;;21085190;28;19916;-78
2024/04/02 06:14:16;;;;;;;;;;;6.90;99.90;;;;;;21092148;28;20402;-78
2024/04/02 06:24:18;;;;;;;;;;;7.10;99.90;;;;;;21081305;28;19923;-78
2024/04/02 06:34:18;;;;;;;;;;;7.20;99.90;;;;;;21082808;28;19912;-78
2024/04/02 06:44:19;;;;;;;;;;;7.40;99.90;;;;;;21083601;28;19923;-78
2024/04/02 06:54:20;;;;;;;;;;;7.70;99.90;;;;;;21086499;28;19924;-78
2024/04/02 07:04:20;;;;;;;;;;;8.10;99.90;;;;;;21072810;28;19924;-77
2024/04/02 07:14:21;;;;;;;;;;;8.80;99.90;;;;;;21082932;28;19920;-78
2024/04/02 07:24:22;;;;;;;;;;;9.00;99.90;;;;;;21083207;28;19916;-77
2024/04/02 07:34:22;;;;;;;;;;;9.60;99.90;;;;;;21080123;28;20401;-77
2024/04/02 07:44:24;;;;;;;;;;;9.60;99.90;;;;;;21080933;28;19916;-76
2024/04/02 07:54:25;;;;;;;;;;;9.80;99.90;;;;;;21079804;28;19912;-77
2024/04/02 08:04:26;;;;;;;;;;;9.60;99.90;;;;;;21076458;28;19977;-77
2024/04/02 08:14:31;;;;;;;;;;;9.70;99.90;;;;;;21079380;28;19916;-76
2024/04/02 08:24:32;;;;;;;;;;;9.60;99.90;;;;;;21086120;28;19916;-77
2024/04/02 08:34:32;;;;;;;;;;;9.70;99.90;;;;;;21086387;28;20453;-77
2024/04/02 08:44:35;;;;;;;;;;;9.70;99.90;;;;;;21085877;28;19927;-77
2024/04/02 08:54:36;;;;;;;;;;;9.50;99.90;;;;;;21087237;28;20003;-76
2024/04/02 09:04:37;;;;;;;;;;;8.80;99.90;;;;;;21083369;28;19962;-76
2024/04/02 09:14:38;;;;;;;;;;;8.30;99.90;;;;;;21080131;28;19934;-76
2024/04/02 09:24:39;;;;;;;;;;;8.80;99.90;;;;;;21081933;28;19916;-77
2024/04/02 09:34:41;;;;;;;;;;;11.00;99.90;;;;;;21079248;28;20375;-75
2024/04/02 09:44:43;;;;;;;;;;;11.40;99.90;;;;;;21079984;28;20318;-77
2024/04/02 09:54:45;;;;;;;;;;;10.00;99.90;;;;;;21080351;28;20374;-77
2024/04/02 10:04:54;;;;;;;;;;;9.60;99.90;;;;;;21075854;28;19916;-77
2024/04/02 10:14:56;;;;;;;;;;;9.70;99.90;;;;;;21077982;28;19950;-77
2024/04/02 10:25:10;;;;;;;;;;;10.10;99.90;;;;;;21070839;28;20491;-77
2024/04/02 10:35:29;;;;;;;;;;;11.80;99.90;;;;;;21073325;28;20349;-77
2024/04/02 10:45:31;;;;;;;;;;;13.00;99.90;;;;;;21079993;28;20611;-76
2024/04/02 10:55:32;;;;;;;;;;;11.00;99.90;;;;;;21081408;28;19912;-78
2024/04/02 11:05:34;;;;;;;;;;;10.50;99.90;;;;;;21080881;28;19923;-76
2024/04/02 11:15:35;;;;;;;;;;;11.30;99.90;;;;;;21074033;28;20326;-77
2024/04/02 11:25:36;;;;;;;;;;;12.10;99.90;;;;;;21076180;28;19924;-78
2024/04/02 11:35:36;;;;;;;;;;;12.30;99.90;;;;;;21074484;28;19912;-77
2024/04/02 11:45:37;;;;;;;;;;;11.60;99.90;;;;;;21073374;28;19955;-77
2024/04/02 11:55:39;;;;;;;;;;;11.50;99.90;;;;;;21088973;28;19912;-77
2024/04/02 12:05:40;;;;;;;;;;;11.80;99.90;;;;;;21084063;28;19916;-77
2024/04/02 12:15:41;;;;;;;;;;;12.10;99.90;;;;;;21090165;28;19968;-77
2024/04/02 12:25:41;;;;;;;;;;;12.20;99.90;;;;;;21092808;28;19916;-78
2024/04/02 12:35:42;;;;;;;;;;;11.50;99.90;;;;;;21092565;28;20389;-78
2024/04/02 12:45:49;;;;;;;;;;;11.80;99.90;;;;;;21084984;28;19916;-78
2024/04/02 12:55:51;;;;;;;;;;;12.30;99.90;;;;;;21084072;28;19912;-78
2024/04/02 13:05:51;;;;;;;;;;;14.00;99.90;;;;;;21088032;28;19973;-77
2024/04/02 13:15:52;;;;;;;;;;;13.90;99.90;;;;;;21085881;28;20418;-77
2024/04/02 13:25:53;;;;;;;;;;;12.30;99.90;;;;;;21083592;28;19923;-78
2024/04/02 13:35:53;;;;;;;;;;;12.30;99.90;;;;;;21090129;28;19916;-77
2024/04/02 13:45:55;;;;;;;;;;;13.70;99.90;;;;;;21079079;28;19923;-77
2024/04/02 13:55:56;;;;;;;;;;;14.10;99.90;;;;;;21081293;28;19919;-78
2024/04/02 14:05:57;;;;;;;;;;;14.80;99.90;;;;;;21083288;28;19916;-75
2024/04/02 14:15:59;;;;;;;;;;;15.00;99.90;;;;;;21094041;28;19950;-78
2024/04/02 14:26:01;;;;;;;;;;;14.70;99.90;;;;;;21072395;28;20378;-77
2024/04/02 14:36:04;;;;;;;;;;;14.50;99.90;;;;;;21079148;28;19958;-77
2024/04/02 14:46:05;;;;;;;;;;;14.50;99.90;;;;;;21077190;28;20345;-76
2024/04/02 14:56:06;;;;;;;;;;;14.20;99.90;;;;;;21055855;28;19965;-78
2024/04/02 15:06:10;;;;;;;;;;;15.30;99.90;;;;;;21068777;28;19916;-77
2024/04/02 15:16:11;;;;;;;;;;;14.50;99.90;;;;;;21067256;28;19926;-77
2024/04/02 15:26:11;;;;;;;;;;;14.50;99.90;;;;;;21083332;28;20438;-78
2024/04/02 15:36:12;;;;;;;;;;;15.20;99.90;;;;;;21092239;28;19912;-75
2024/04/02 15:46:13;;;;;;;;;;;14.90;99.90;;;;;;21097120;28;20383;-77
2024/04/02 15:56:13;;;;;;;;;;;15.20;99.90;;;;;;21065645;28;19920;-77
2024/04/02 16:06:15;;;;;;;;;;;14.90;99.90;;;;;;21047840;28;19916;-77
2024/04/02 16:16:16;;;;;;;;;;;14.40;99.90;;;;;;21072610;28;19916;-77
2024/04/02 16:26:16;;;;;;;;;;;14.20;99.90;;;;;;21082305;28;20012;-76
2024/04/02 16:36:17;;;;;;;;;;;13.90;99.90;;;;;;21068011;28;20268;-76
2024/04/02 16:46:17;;;;;;;;;;;13.70;99.90;;;;;;21027092;28;19916;-77
2024/04/02 16:56:18;;;;;;;;;;;13.40;99.90;;;;;;21074559;28;19969;-76
2024/04/02 17:06:19;;;;;;;;;;;13.40;99.90;;;;;;21078920;28;20386;-77
2024/04/02 17:16:20;;;;;;;;;;;13.40;99.90;;;;;;21065327;28;20026;-76
2024/04/02 17:26:21;;;;;;;;;;;13.20;99.90;;;;;;21056660;28;19924;-77
2024/04/02 17:36:22;;;;;;;;;;;12.80;99.90;;;;;;21050967;28;19919;-78
2024/04/02 17:46:22;;;;;;;;;;;12.50;99.90;;;;;;21085181;28;20380;-78
2024/04/02 17:56:23;;;;;;;;;;;12.20;99.90;;;;;;21089801;28;19919;-78
2024/04/02 18:06:26;;;;;;;;;;;11.80;99.90;;;;;;21089148;28;19916;-80
2024/04/02 18:16:26;;;;;;;;;;;10.60;99.90;;;;;;21094405;28;19924;-81
2024/04/02 18:26:27;;;;;;;;;;;10.00;99.90;;;;;;21088655;28;19920;-78
2024/04/02 18:36:28;;;;;;;;;;;9.70;99.90;;;;;;21080315;28;20302;-77
2024/04/02 18:46:29;;;;;;;;;;;9.20;99.90;;;;;;21070441;28;20004;-77
2024/04/02 18:56:30;;;;;;;;;;;9.00;99.90;;;;;;21077303;28;19943;-77
2024/04/02 19:06:32;;;;;;;;;;;8.80;99.90;;;;;;21074849;28;19938;-77
2024/04/02 19:16:34;;;;;;;;;;;8.20;99.90;;;;;;21074132;28;19923;-77
2024/04/02 19:26:34;;;;;;;;;;;7.70;99.90;;;;;;21078847;28;20049;-77
2024/04/02 19:36:35;;;;;;;;;;;8.10;99.90;;;;;;21073996;28;19950;-77
2024/04/02 19:46:36;;;;;;;;;;;7.70;99.90;;;;;;21078613;28;19931;-77
2024/04/02 19:56:36;;;;;;;;;;;7.00;99.90;;;;;;21072589;28;19965;-77
2024/04/02 20:06:37;;;;;;;;;;;6.70;99.90;;;;;;21071918;28;19960;-76
2024/04/02 20:16:38;;;;;;;;;;;6.30;99.90;;;;;;21087620;28;19916;-77
2024/04/02 20:26:38;;;;;;;;;;;6.00;99.90;;;;;;21067683;28;19920;-76
2024/04/02 20:36:39;;;;;;;;;;;6.10;99.90;;;;;;21080036;28;19912;-76
2024/04/02 20:46:40;;;;;;;;;;;6.00;99.90;;;;;;21084561;28;20390;-76
2024/04/02 20:56:41;;;;;;;;;;;5.30;99.90;;;;;;21084080;28;19912;-76
2024/04/02 21:06:41;;;;;;;;;;;5.30;99.90;;;;;;21082602;28;19966;-76
2024/04/02 21:16:42;;;;;;;;;;;5.20;99.90;;;;;;21078504;28;19916;-77
2024/04/02 21:26:44;;;;;;;;;;;5.00;99.90;;;;;;21080857;28;19916;-76
2024/04/02 21:36:45;;;;;;;;;;;5.10;99.90;;;;;;21032901;28;19942;-75
2024/04/02 21:46:46;;;;;;;;;;;5.30;99.90;;;;;;21029953;28;19962;-76
2024/04/02 21:56:48;;;;;;;;;;;5.40;99.90;;;;;;21030811;28;19920;-76
2024/04/02 22:06:48;;;;;;;;;;;5.10;99.90;;;;;;21026311;28;19923;-75
2024/04/02 22:16:49;;;;;;;;;;;4.40;99.90;;;;;;21051613;28;19917;-76
2024/04/02 22:26:50;;;;;;;;;;;4.30;99.90;;;;;;21027734;28;21270;-75
2024/04/02 22:36:50;;;;;;;;;;;5.00;99.90;;;;;;21020537;28;19920;-76
2024/04/02 22:46:51;;;;;;;;;;;5.00;99.90;;;;;;21012303;28;19941;-76
2024/04/02 22:56:52;;;;;;;;;;;5.20;99.90;;;;;;21046759;28;20351;-76
2024/04/02 23:06:53;;;;;;;;;;;5.30;99.90;;;;;;21070811;28;19916;-76
2024/04/02 23:16:55;;;;;;;;;;;5.20;99.90;;;;;;21064754;28;19932;-76
2024/04/02 23:26:56;;;;;;;;;;;5.10;99.90;;;;;;21044981;28;19920;-76
2024/04/02 23:36:57;;;;;;;;;;;5.10;99.90;;;;;;21068674;28;20413;-76
2024/04/02 23:46:57;;;;;;;;;;;4.90;99.90;;;;;;21082106;28;19916;-76
2024/04/02 23:56:58;;;;;;;;;;;4.50;99.90;;;;;;21087981;28;19947;-76
